createdAt,value
2018-11-25T00:00:12.473Z,25
2018-11-25T00:01:03.143Z,25.1
2018-11-25T00:01:51.478Z,25.1
2018-11-25T00:02:42.710Z,25.1
2018-11-25T00:03:32.902Z,24.9
2018-11-25T00:04:22.440Z,24.3
2018-11-25T00:05:11.443Z,23.7
2018-11-25T00:06:03.146Z,23.2
2018-11-25T00:06:53.225Z,22.8
2018-11-25T00:25:10.910Z,22.8
2018-11-25T00:26:02.102Z,23.2
2018-11-25T00:26:51.301Z,23.4
2018-11-25T00:27:41.947Z,23.6
2018-11-25T00:28:31.171Z,23.9
2018-11-25T00:29:22.634Z,24
2018-11-25T00:30:12.346Z,24.1
2018-11-25T00:31:11.327Z,24.3
2018-11-25T00:31:51.651Z,24.4
2018-11-25T00:32:42.519Z,24.5
2018-11-25T00:33:32.049Z,24.6
2018-11-25T00:34:22.129Z,24.7
2018-11-25T00:35:12.731Z,24.8
2018-11-25T00:36:03.066Z,24.9
2018-11-25T00:36:52.568Z,24.9
2018-11-25T00:37:51.589Z,25
2018-11-25T00:38:32.164Z,25.1
2018-11-25T00:39:21.666Z,25.1
2018-11-25T00:40:13.428Z,25.2
2018-11-25T00:41:01.567Z,24.7
2018-11-25T00:41:52.163Z,24.1
2018-11-25T00:42:42.589Z,23.5
2018-11-25T00:43:33.055Z,23.1
2018-11-25T00:44:23.098Z,22.8
2018-11-25T00:45:12.559Z,22.5
2018-11-25T00:46:02.656Z,22.3
2018-11-25T00:46:53.260Z,22.2
2018-11-25T00:47:43.582Z,22.1
2018-11-25T00:48:33.097Z,21.9
2018-11-25T00:49:22.093Z,21.8
2018-11-25T00:50:12.990Z,21.7
2018-11-25T00:51:03.528Z,21.5
2018-11-25T00:51:53.055Z,21.3
2018-11-25T00:52:43.994Z,21.1
2018-11-25T00:53:34.317Z,20.9
2018-11-25T00:54:24.341Z,20.8
2018-11-25T00:55:13.615Z,20.6
2018-11-25T00:56:04.943Z,20.5
2018-11-25T00:56:53.697Z,20.4
2018-11-25T00:57:44.912Z,20.3
2018-11-25T00:58:34.080Z,20.3
2018-11-25T00:59:23.852Z,20.8
2018-11-25T01:00:13.782Z,21.6
2018-11-25T01:01:04.282Z,22.2
2018-11-25T01:01:54.652Z,22.6
2018-11-25T01:02:43.979Z,22.9
2018-11-25T01:03:33.382Z,23.2
2018-11-25T01:04:23.969Z,23.4
2018-11-25T01:05:14.409Z,23.6
2018-11-25T01:06:04.442Z,23.8
2018-11-25T01:06:53.884Z,23.9
2018-11-25T01:07:45.344Z,24.1
2018-11-25T01:08:34.586Z,24.2
2018-11-25T01:09:24.976Z,24.3
2018-11-25T01:10:15.255Z,24.4
2018-11-25T01:11:05.079Z,24.4
2018-11-25T01:11:54.476Z,24.6
2018-11-25T01:12:43.750Z,24.6
2018-11-25T01:13:35.644Z,24.7
2018-11-25T01:14:24.633Z,24.8
2018-11-25T01:15:15.863Z,24.8
2018-11-25T01:16:05.831Z,24.8
2018-11-25T01:16:55.111Z,24.9
2018-11-25T01:17:44.352Z,24.9
2018-11-25T01:18:34.452Z,25
2018-11-25T01:19:25.903Z,25
2018-11-25T01:20:15.700Z,25.1
2018-11-25T01:21:06.206Z,24.6
2018-11-25T01:21:56.591Z,23.9
2018-11-25T01:22:45.195Z,23.4
2018-11-25T01:23:37.005Z,23.1
2018-11-25T01:24:25.758Z,22.7
2018-11-25T01:25:16.005Z,22.5
2018-11-25T01:26:06.831Z,22.3
2018-11-25T01:26:56.877Z,22.1
2018-11-25T01:27:46.155Z,21.9
2018-11-25T01:28:36.236Z,21.8
2018-11-25T01:29:27.028Z,21.7
2018-11-25T01:30:16.339Z,21.6
2018-11-25T01:31:06.407Z,21.6
2018-11-25T01:31:56.783Z,21.3
2018-11-25T01:33:36.310Z,20.9
2018-11-25T01:34:26.855Z,20.8
2018-11-25T01:35:16.807Z,20.7
2018-11-25T01:36:07.273Z,20.5
2018-11-25T01:36:57.375Z,20.4
2018-11-25T01:37:46.387Z,20.3
2018-11-25T01:38:36.965Z,20.3
2018-11-25T01:39:26.935Z,20.4
2018-11-25T01:40:17.147Z,21.2
2018-11-25T01:41:05.992Z,21.9
2018-11-25T01:41:57.496Z,22.3
2018-11-25T01:42:48.444Z,22.7
2018-11-25T01:43:38.454Z,23
2018-11-25T01:44:25.914Z,23.3
2018-11-25T01:45:17.433Z,23.4
2018-11-25T01:46:06.595Z,23.6
2018-11-25T01:46:58.002Z,23.8
2018-11-25T01:47:47.879Z,23.9
2018-11-25T01:48:37.659Z,23.8
2018-11-25T01:49:29.047Z,23.1
2018-11-25T01:50:16.994Z,22.3
2018-11-25T01:51:07.057Z,21.6
2018-11-25T01:51:58.114Z,20.9
2018-11-25T01:52:48.517Z,20.4
2018-11-25T01:53:38.194Z,19.8
2018-11-25T01:54:27.736Z,19.3
2018-11-25T01:56:07.281Z,18.2
2018-11-25T01:56:58.731Z,18.2
2018-11-25T01:57:47.786Z,18.4
2018-11-25T01:58:37.914Z,19.3
2018-11-25T01:59:27.874Z,20.1
2018-11-25T02:00:19.624Z,20.9
2018-11-25T02:01:07.208Z,21.7
2018-11-25T02:01:58.876Z,22.3
2018-11-25T02:02:46.472Z,22.7
2018-11-25T02:03:37.871Z,23
2018-11-25T02:04:28.218Z,23.3
2018-11-25T02:05:18.878Z,23.6
2018-11-25T02:06:08.346Z,23.8
2018-11-25T02:06:58.661Z,24
2018-11-25T02:07:48.417Z,24.2
2018-11-25T02:08:39.243Z,24.3
2018-11-25T02:09:28.549Z,24.5
2018-11-25T02:10:19.762Z,24.6
2018-11-25T02:11:08.886Z,24.8
2018-11-25T02:11:58.976Z,24.8
2018-11-25T02:12:49.685Z,24.9
2018-11-25T02:13:39.173Z,25
2018-11-25T02:14:30.044Z,25.1
2018-11-25T02:15:20.000Z,25.2
2018-11-25T02:16:09.562Z,25.3
2018-11-25T02:17:00.132Z,24.7
2018-11-25T02:17:50.243Z,24
2018-11-25T02:18:40.303Z,23.4
2018-11-25T02:19:29.487Z,23.1
2018-11-25T02:20:19.567Z,22.8
2018-11-25T02:21:09.670Z,22.5
2018-11-25T02:21:59.959Z,22.3
2018-11-25T02:22:50.115Z,22.2
2018-11-25T02:23:40.367Z,22
2018-11-25T02:24:30.409Z,21.9
2018-11-25T02:25:20.839Z,21.8
2018-11-25T02:26:10.228Z,21.7
2018-11-25T02:26:59.737Z,21.4
2018-11-25T02:27:50.354Z,21.2
2018-11-25T02:28:39.574Z,21
2018-11-25T02:29:30.748Z,20.8
2018-11-25T02:30:21.567Z,20.7
2018-11-25T02:31:09.762Z,20.6
2018-11-25T02:32:00.891Z,20.4
2018-11-25T02:32:51.534Z,20.3
2018-11-25T02:33:41.041Z,20.3
2018-11-25T02:34:31.089Z,20.4
2018-11-25T02:35:20.099Z,21.2
2018-11-25T02:36:10.957Z,21.9
2018-11-25T02:37:00.766Z,22.4
2018-11-25T02:37:50.024Z,22.8
2018-11-25T02:38:41.181Z,23.1
2018-11-25T02:39:31.729Z,23.4
2018-11-25T02:40:21.531Z,23.7
2018-11-25T02:41:10.459Z,23.9
2018-11-25T02:42:01.573Z,24
2018-11-25T02:42:51.124Z,24.2
2018-11-25T02:43:42.039Z,24.3
2018-11-25T02:44:31.530Z,24.4
2018-11-25T02:45:21.194Z,24.6
2018-11-25T02:46:11.901Z,24.7
2018-11-25T02:47:02.500Z,24.8
2018-11-25T02:47:51.576Z,24.9
2018-11-25T02:48:42.116Z,24.9
2018-11-25T02:49:31.876Z,25
2018-11-25T02:50:21.393Z,25.1
2018-11-25T02:51:11.723Z,25.2
2018-11-25T02:52:02.405Z,24.9
2018-11-25T02:52:52.940Z,24.2
2018-11-25T02:53:42.763Z,23.6
2018-11-25T02:54:31.135Z,23.2
2018-11-25T02:55:21.689Z,22.8
2018-11-25T02:56:11.793Z,22.6
2018-11-25T02:57:02.165Z,22.4
2018-11-25T02:57:52.165Z,22.2
2018-11-25T02:58:42.488Z,22
2018-11-25T02:59:31.763Z,21.9
2018-11-25T03:00:22.414Z,21.8
2018-11-25T03:01:12.782Z,21.7
2018-11-25T03:02:02.471Z,21.6
2018-11-25T03:02:53.722Z,21.3
2018-11-25T03:03:42.867Z,21.1
2018-11-25T03:04:32.352Z,20.9
2018-11-25T03:05:22.479Z,20.8
2018-11-25T03:06:12.774Z,20.6
2018-11-25T03:07:03.999Z,20.5
2018-11-25T03:07:52.967Z,20.4
2018-11-25T03:08:43.244Z,20.3
2018-11-25T03:09:33.594Z,20.3
2018-11-25T03:10:22.908Z,20.8
2018-11-25T03:11:12.594Z,21.6
2018-11-25T03:12:03.802Z,22.2
2018-11-25T03:12:53.529Z,22.7
2018-11-25T03:13:43.916Z,23
2018-11-25T03:14:34.189Z,23.3
2018-11-25T03:15:24.105Z,23.6
2018-11-25T03:16:13.854Z,23.8
2018-11-25T03:17:02.732Z,23.9
2018-11-25T03:17:54.198Z,24.1
2018-11-25T03:18:44.759Z,24.3
2018-11-25T03:19:35.074Z,24.4
2018-11-25T03:20:24.406Z,24.5
2018-11-25T03:21:15.019Z,24.6
2018-11-25T03:22:04.726Z,24.7
2018-11-25T03:22:54.808Z,24.8
2018-11-25T03:23:43.698Z,24.9
2018-11-25T03:24:34.133Z,24.9
2018-11-25T03:25:25.015Z,25
2018-11-25T03:26:14.996Z,25.1
2018-11-25T03:27:02.918Z,25.1
2018-11-25T03:27:53.514Z,24.9
2018-11-25T03:28:44.695Z,24.3
2018-11-25T03:29:34.470Z,23.6
2018-11-25T03:30:24.570Z,23.2
2018-11-25T03:31:13.518Z,22.9
2018-11-25T03:32:04.648Z,22.6
2018-11-25T03:32:55.245Z,22.4
2018-11-25T03:33:44.452Z,22.2
2018-11-25T03:34:34.195Z,22.1
2018-11-25T03:35:25.161Z,21.9
2018-11-25T03:36:15.478Z,21.8
2018-11-25T03:37:06.038Z,21.7
2018-11-25T03:37:55.145Z,21.6
2018-11-25T03:38:45.170Z,21.4
2018-11-25T03:39:35.387Z,21.2
2018-11-25T03:40:25.545Z,21
2018-11-25T03:41:14.410Z,20.8
2018-11-25T03:42:05.634Z,20.6
2018-11-25T03:42:55.412Z,20.5
2018-11-25T03:43:45.666Z,20.4
2018-11-25T03:44:35.447Z,20.3
2018-11-25T03:45:25.965Z,20.2
2018-11-25T03:46:15.052Z,20.4
2018-11-25T03:47:05.999Z,21.3
2018-11-25T03:47:56.287Z,22
2018-11-25T03:48:45.978Z,22.4
2018-11-25T03:49:36.054Z,22.8
2018-11-25T03:50:26.184Z,23.1
2018-11-25T03:51:15.667Z,23.4
2018-11-25T03:52:05.767Z,23.6
2018-11-25T03:52:56.059Z,23.8
2018-11-25T03:53:47.203Z,23.9
2018-11-25T03:54:35.671Z,24.1
2018-11-25T03:55:27.046Z,24.2
2018-11-25T03:56:15.726Z,24.3
2018-11-25T03:57:06.104Z,24.4
2018-11-25T03:57:57.214Z,24.5
2018-11-25T03:58:46.746Z,24.6
2018-11-25T03:59:37.148Z,24.7
2018-11-25T04:00:25.813Z,24.8
2018-11-25T04:01:17.225Z,24.8
2018-11-25T04:02:06.216Z,24.9
2018-11-25T04:02:57.341Z,24.9
2018-11-25T04:03:46.553Z,24.9
2018-11-25T04:04:36.914Z,25.1
2018-11-25T04:05:28.885Z,25.1
2018-11-25T04:06:17.351Z,25
2018-11-25T04:07:07.297Z,24.4
2018-11-25T04:07:57.761Z,23.7
2018-11-25T04:08:46.631Z,23.3
2018-11-25T04:09:37.803Z,22.9
2018-11-25T04:10:28.473Z,22.6
2018-11-25T04:11:18.185Z,22.4
2018-11-25T04:12:08.261Z,22.2
2018-11-25T04:12:57.990Z,22
2018-11-25T04:13:48.718Z,21.9
2018-11-25T04:14:37.555Z,21.8
2018-11-25T04:15:26.545Z,21.6
2018-11-25T04:16:18.048Z,21.6
2018-11-25T04:17:08.045Z,21.4
2018-11-25T04:18:47.872Z,20.9
2018-11-25T04:19:38.442Z,20.8
2018-11-25T04:20:28.317Z,20.6
2018-11-25T04:21:18.892Z,20.5
2018-11-25T04:22:09.007Z,20.4
2018-11-25T04:22:57.917Z,20.3
2018-11-25T04:23:47.452Z,20.3
2018-11-25T04:24:39.092Z,20.3
2018-11-25T04:26:18.690Z,21.8
2018-11-25T04:27:09.287Z,22.3
2018-11-25T04:27:58.552Z,22.6
2018-11-25T04:28:49.157Z,22.9
2018-11-25T04:29:38.089Z,23.2
2018-11-25T04:30:29.560Z,23.4
2018-11-25T04:31:17.101Z,23.6
2018-11-25T04:32:08.838Z,23.8
2018-11-25T04:32:59.704Z,23.9
2018-11-25T04:33:48.446Z,23.9
2018-11-25T04:34:40.084Z,24.1
2018-11-25T04:35:29.629Z,24.1
2018-11-25T04:36:19.439Z,24.3
2018-11-25T04:37:09.155Z,24.3
2018-11-25T04:54:26.050Z,22.9
2018-11-25T04:55:16.053Z,22.6
2018-11-25T04:56:05.392Z,22.3
2018-11-25T04:56:55.432Z,22.2
2018-11-25T04:57:45.710Z,22
2018-11-25T04:58:35.982Z,21.9
2018-11-25T04:59:26.295Z,21.7
2018-11-25T05:00:16.749Z,21.6
2018-11-25T05:01:05.672Z,21.6
2018-11-25T05:01:55.615Z,21.4
2018-11-25T05:03:36.329Z,20.9
2018-11-25T05:04:25.845Z,20.8
2018-11-25T05:05:15.522Z,20.6
2018-11-25T05:06:05.976Z,20.5
2018-11-25T05:06:56.250Z,20.3
2018-11-25T05:07:47.267Z,20.3
2018-11-25T05:08:37.246Z,20.2
2018-11-25T05:09:27.024Z,20.5
2018-11-25T05:10:17.141Z,21.2
2018-11-25T05:11:06.336Z,21.8
2018-11-25T05:11:57.991Z,22.1
2018-11-25T05:12:47.328Z,22.5
2018-11-25T05:13:36.719Z,22.8
2018-11-25T05:14:26.816Z,23
2018-11-25T05:15:16.865Z,23.1
2018-11-25T05:16:06.411Z,22.6
2018-11-25T05:16:58.591Z,22.1
2018-11-25T05:17:47.910Z,21.3
2018-11-25T05:18:37.091Z,20.7
2018-11-25T05:19:27.693Z,20.2
2018-11-25T05:20:16.686Z,19.6
2018-11-25T05:21:06.224Z,19.1
2018-11-25T05:21:57.660Z,18.6
2018-11-25T05:22:47.698Z,18
2018-11-25T05:23:37.185Z,17.6
2018-11-25T05:24:28.953Z,17.5
2018-11-25T05:25:17.382Z,17.6
2018-11-25T05:26:05.958Z,18.4
2018-11-25T05:26:57.921Z,19.4
2018-11-25T05:27:48.328Z,20.3
2018-11-25T05:28:37.308Z,21.1
2018-11-25T05:29:27.863Z,21.6
2018-11-25T05:30:17.720Z,22.1
2018-11-25T05:31:07.245Z,22.5
2018-11-25T05:31:57.779Z,22.8
2018-11-25T05:32:48.696Z,23.1
2018-11-25T05:33:37.917Z,23.3
2018-11-25T05:34:27.395Z,23.5
2018-11-25T05:35:18.650Z,23.8
2018-11-25T05:36:09.152Z,23.9
2018-11-25T05:36:58.674Z,24.1
2018-11-25T05:37:49.092Z,24.2
2018-11-25T05:38:38.789Z,24.3
2018-11-25T05:39:28.277Z,24.4
2018-11-25T05:40:19.500Z,24.6
2018-11-25T05:41:07.904Z,24.7
2018-11-25T05:41:59.032Z,24.7
2018-11-25T05:42:49.999Z,24.8
2018-11-25T05:43:40.277Z,24.9
2018-11-25T05:44:29.247Z,24.9
2018-11-25T05:45:19.740Z,25.1
2018-11-25T05:46:08.842Z,25.1
2018-11-25T05:46:59.676Z,25
2018-11-25T05:47:49.571Z,24.3
2018-11-25T05:48:39.746Z,23.6
2018-11-25T05:49:37.159Z,23.2
2018-11-25T05:50:20.239Z,22.8
2018-11-25T05:51:09.431Z,22.6
2018-11-25T05:51:59.422Z,22.4
2018-11-25T05:52:50.427Z,22.2
2018-11-25T05:53:39.551Z,22
2018-11-25T05:54:29.374Z,21.8
2018-11-25T05:55:19.991Z,21.7
2018-11-25T05:56:10.032Z,21.6
2018-11-25T05:56:58.983Z,21.6
2018-11-25T05:57:50.020Z,21.4
2018-11-25T05:59:31.051Z,21
2018-11-25T06:00:20.373Z,20.8
2018-11-25T06:01:10.718Z,20.6
2018-11-25T06:02:00.671Z,20.5
2018-11-25T06:02:50.609Z,20.4
2018-11-25T06:03:40.822Z,20.3
2018-11-25T06:04:30.037Z,20.3
2018-11-25T06:05:21.011Z,20.8
2018-11-25T06:06:09.897Z,21.5
2018-11-25T06:07:00.756Z,22.1
2018-11-25T06:07:50.325Z,22.5
2018-11-25T06:08:41.687Z,22.9
2018-11-25T06:09:30.909Z,23.2
2018-11-25T06:10:20.482Z,23.4
2018-11-25T06:11:08.630Z,23.6
2018-11-25T06:12:02.280Z,23.8
2018-11-25T06:12:50.687Z,24
2018-11-25T06:13:40.454Z,24.2
2018-11-25T06:14:30.772Z,24.3
2018-11-25T06:15:20.846Z,24.4
2018-11-25T06:16:10.588Z,24.5
2018-11-25T06:17:02.315Z,24.6
2018-11-25T06:17:52.419Z,24.8
2018-11-25T06:18:41.037Z,24.8
2018-11-25T06:19:32.235Z,24.9
2018-11-25T06:20:21.869Z,24.9
2018-11-25T06:21:10.677Z,25
2018-11-25T06:22:01.942Z,25.1
2018-11-25T06:22:52.162Z,25
2018-11-25T06:23:41.467Z,24.3
2018-11-25T06:24:32.829Z,23.7
2018-11-25T06:25:23.137Z,23.3
2018-11-25T06:26:11.097Z,22.9
2018-11-25T06:27:02.707Z,22.6
2018-11-25T06:27:52.271Z,22.4
2018-11-25T06:28:42.108Z,22.1
2018-11-25T06:29:32.656Z,22
2018-11-25T06:30:22.846Z,21.8
2018-11-25T06:31:11.646Z,21.7
2018-11-25T06:32:03.118Z,21.6
2018-11-25T06:32:52.921Z,21.5
2018-11-25T06:33:42.894Z,21.3
2018-11-25T06:34:32.449Z,21.1
2018-11-25T06:35:23.671Z,20.9
2018-11-25T06:36:12.258Z,20.8
2018-11-25T06:37:02.568Z,20.6
2018-11-25T06:37:53.235Z,20.4
2018-11-25T06:38:41.686Z,20.4
2018-11-25T06:39:32.881Z,20.3
2018-11-25T06:40:23.228Z,20.2
2018-11-25T06:41:12.353Z,20.1
2018-11-25T06:42:03.248Z,20
2018-11-25T06:42:53.933Z,20
2018-11-25T06:43:43.628Z,19.9
2018-11-25T06:44:33.955Z,19.9
2018-11-25T06:45:23.797Z,19.8
2018-11-25T06:46:13.785Z,19.7
2018-11-25T06:47:02.850Z,19.6
2018-11-25T06:47:53.128Z,19.6
2018-11-25T06:48:44.013Z,19.5
2018-11-25T06:49:33.842Z,19.4
2018-11-25T06:50:24.372Z,20.1
2018-11-25T06:51:13.309Z,20.9
2018-11-25T06:52:02.855Z,21.6
2018-11-25T06:52:53.177Z,22.1
2018-11-25T06:53:43.582Z,22.4
2018-11-25T06:54:33.534Z,22.8
2018-11-25T06:55:23.602Z,23.1
2018-11-25T06:56:13.669Z,23.4
2018-11-25T06:57:04.537Z,23.6
2018-11-25T06:57:54.737Z,23.8
2018-11-25T06:58:44.684Z,23.9
2018-11-25T06:59:34.160Z,24.1
2018-11-25T07:00:25.723Z,24.2
2018-11-25T07:01:13.753Z,24.3
2018-11-25T07:02:04.954Z,24.4
2018-11-25T07:02:55.030Z,24.6
2018-11-25T07:03:44.797Z,24.6
2018-11-25T07:04:35.387Z,24.7
2018-11-25T07:05:24.629Z,24.8
2018-11-25T07:06:14.659Z,24.9
2018-11-25T07:07:04.699Z,24.9
2018-11-25T07:07:55.396Z,24.9
2018-11-25T07:08:45.128Z,25.1
2018-11-25T07:09:35.449Z,25.1
2018-11-25T07:10:24.774Z,25.1
2018-11-25T07:11:14.264Z,25.1
2018-11-25T07:12:05.908Z,24.6
2018-11-25T07:12:54.835Z,23.9
2018-11-25T07:13:45.047Z,23.4
2018-11-25T07:14:36.091Z,23.1
2018-11-25T07:15:26.403Z,22.7
2018-11-25T07:16:14.857Z,22.1
2018-11-25T07:17:05.113Z,21.7
2018-11-25T07:17:55.494Z,21.5
2018-11-25T07:18:45.859Z,21.4
2018-11-25T07:19:35.338Z,21.4
2018-11-25T07:20:26.468Z,21.3
2018-11-25T07:21:15.466Z,21.3
2018-11-25T07:22:58.089Z,20.9
2018-11-25T07:23:46.150Z,20.8
2018-11-25T07:24:37.006Z,20.6
2018-11-25T07:25:26.582Z,20.4
2018-11-25T07:26:15.845Z,20.3
2018-11-25T07:27:05.883Z,20.3
2018-11-25T07:27:55.892Z,20.1
2018-11-25T07:28:46.727Z,20
2018-11-25T07:29:35.968Z,19.9
2018-11-25T07:30:27.170Z,19.9
2018-11-25T07:31:16.935Z,19.8
2018-11-25T07:32:06.152Z,19.8
2018-11-25T07:32:56.393Z,19.8
2018-11-25T07:33:46.849Z,19.6
2018-11-25T07:34:37.423Z,19.6
2018-11-25T07:35:26.939Z,19.5
2018-11-25T07:36:17.860Z,19.4
2018-11-25T07:37:06.244Z,19.4
2018-11-25T07:37:57.148Z,19.3
2018-11-25T07:38:47.706Z,19.6
2018-11-25T07:39:37.752Z,20.5
2018-11-25T07:40:28.124Z,21.3
2018-11-25T07:41:18.208Z,21.9
2018-11-25T07:42:07.694Z,22.3
2018-11-25T07:42:58.109Z,22.7
2018-11-25T07:43:47.496Z,22.9
2018-11-25T07:44:37.316Z,23.2
2018-11-25T07:45:36.106Z,23.4
2018-11-25T07:46:17.777Z,23.6
2018-11-25T07:47:08.306Z,23.7
2018-11-25T07:47:57.887Z,23.8
2018-11-25T07:48:48.664Z,23.9
2018-11-25T07:49:37.378Z,24
2018-11-25T07:50:28.596Z,24.1
2018-11-25T07:51:16.952Z,24.2
2018-11-25T07:52:08.361Z,24.3
2018-11-25T07:52:57.684Z,24.4
2018-11-25T07:53:47.546Z,24.4
2018-11-25T07:54:37.841Z,24.5
2018-11-25T07:55:28.653Z,24.6
2018-11-25T07:56:18.676Z,24.6
2018-11-25T07:57:08.553Z,24.7
2018-11-25T07:57:58.273Z,24.7
2018-11-25T07:58:48.303Z,24.8
2018-11-25T07:59:38.084Z,24.8
2018-11-25T08:00:29.148Z,24.9
2018-11-25T08:01:18.252Z,24.9
2018-11-25T08:02:08.668Z,24.9
2018-11-25T08:02:57.830Z,25
2018-11-25T08:03:48.365Z,25
2018-11-25T08:04:38.992Z,24.4
2018-11-25T08:05:29.605Z,23.8
2018-11-25T08:06:18.962Z,23.3
2018-11-25T08:07:09.418Z,22.9
2018-11-25T08:07:59.522Z,22.6
2018-11-25T08:08:48.715Z,22.4
2018-11-25T08:09:39.120Z,22.2
2018-11-25T08:10:29.733Z,22
2018-11-25T08:11:19.998Z,21.9
2018-11-25T08:12:08.675Z,21.7
2018-11-25T08:13:00.342Z,21.6
2018-11-25T08:13:49.105Z,21.5
2018-11-25T08:14:39.659Z,21.4
2018-11-25T08:15:30.045Z,21.2
2018-11-25T08:16:20.831Z,20.9
2018-11-25T08:17:11.194Z,20.8
2018-11-25T08:18:00.083Z,20.6
2018-11-25T08:18:49.384Z,20.5
2018-11-25T08:19:40.039Z,20.4
2018-11-25T08:20:29.557Z,20.3
2018-11-25T08:21:19.410Z,20.2
2018-11-25T08:22:09.082Z,20.1
2018-11-25T08:23:00.261Z,20
2018-11-25T08:23:49.814Z,19.9
2018-11-25T08:24:40.652Z,19.9
2018-11-25T08:25:31.017Z,20.1
2018-11-25T08:26:20.869Z,20.9
2018-11-25T08:27:10.012Z,21.7
2018-11-25T08:28:00.432Z,22.2
2018-11-25T08:28:48.814Z,22.6
2018-11-25T08:29:41.071Z,22.9
2018-11-25T08:30:30.309Z,23.1
2018-11-25T08:31:20.441Z,23.4
2018-11-25T08:32:10.766Z,23.5
2018-11-25T08:33:01.247Z,23.7
2018-11-25T08:33:51.121Z,23.8
2018-11-25T08:34:41.403Z,23.9
2018-11-25T08:35:31.281Z,24.1
2018-11-25T08:36:21.479Z,24.1
2018-11-25T08:37:11.537Z,24.3
2018-11-25T08:38:01.322Z,24.4
2018-11-25T08:38:52.221Z,24.4
2018-11-25T08:39:41.186Z,24.5
2018-11-25T08:40:31.008Z,24.3
2018-11-25T08:41:21.541Z,23.6
2018-11-25T08:42:12.488Z,22.6
2018-11-25T08:43:01.405Z,21.8
2018-11-25T08:43:50.862Z,21.2
2018-11-25T08:44:41.496Z,20.5
2018-11-25T08:45:31.270Z,19.9
2018-11-25T08:46:22.208Z,19.2
2018-11-25T08:47:11.378Z,18.4
2018-11-25T08:48:02.328Z,17.9
2018-11-25T08:48:51.213Z,17.8
2018-11-25T08:49:41.882Z,17.9
2018-11-25T08:50:31.693Z,18.9
2018-11-25T08:51:21.961Z,19.9
2018-11-25T08:52:11.765Z,20.8
2018-11-25T09:08:52.513Z,22.9
2018-11-25T09:09:43.062Z,22.6
2018-11-25T09:10:32.346Z,22.4
2018-11-25T09:11:22.889Z,22.2
2018-11-25T09:12:12.416Z,22.1
2018-11-25T09:13:04.293Z,21.9
2018-11-25T09:13:52.693Z,21.8
2018-11-25T09:14:42.570Z,21.7
2018-11-25T09:15:32.662Z,21.5
2018-11-25T09:16:23.026Z,21.3
2018-11-25T09:17:13.388Z,21
2018-11-25T09:18:03.082Z,20.9
2018-11-25T09:18:52.823Z,20.7
2018-11-25T09:19:42.363Z,20.6
2018-11-25T09:20:33.280Z,20.5
2018-11-25T09:21:23.868Z,20.4
2018-11-25T09:22:12.835Z,20.3
2018-11-25T09:23:03.745Z,20.1
2018-11-25T09:23:53.258Z,20.1
2018-11-25T09:24:42.177Z,20
2018-11-25T09:25:33.687Z,20
2018-11-25T09:26:23.110Z,19.9
2018-11-25T09:27:12.635Z,19.8
2018-11-25T09:28:03.888Z,19.8
2018-11-25T09:28:54.681Z,19.7
2018-11-25T09:29:44.748Z,19.6
2018-11-25T09:30:34.282Z,19.6
2018-11-25T09:31:24.120Z,19.4
2018-11-25T09:32:12.992Z,19.4
2018-11-25T09:33:03.957Z,20.1
2018-11-25T09:33:53.437Z,20.9
2018-11-25T09:34:44.259Z,21.8
2018-11-25T09:35:34.113Z,22.3
2018-11-25T09:36:23.544Z,22.8
2018-11-25T09:37:13.600Z,23.1
2018-11-25T09:38:04.513Z,23.4
2018-11-25T09:38:54.544Z,23.7
2018-11-25T09:39:44.306Z,24
2018-11-25T09:40:34.167Z,24.3
2018-11-25T09:41:24.944Z,24.4
2018-11-25T09:42:14.491Z,24.6
2018-11-25T09:43:04.639Z,24.8
2018-11-25T09:43:54.848Z,24.9
2018-11-25T09:44:43.844Z,25.1
2018-11-25T09:45:35.601Z,25.2
2018-11-25T09:46:25.098Z,25.3
2018-11-25T09:47:14.612Z,24.6
2018-11-25T09:48:04.631Z,23.9
2018-11-25T09:48:55.577Z,23.4
2018-11-25T09:49:44.431Z,23.1
2018-11-25T09:50:34.282Z,22.8
2018-11-25T09:51:25.758Z,22.5
2018-11-25T09:52:14.409Z,22.3
2018-11-25T09:53:05.276Z,22.1
2018-11-25T09:53:54.763Z,22
2018-11-25T09:54:44.598Z,21.9
2018-11-25T09:55:36.789Z,21.8
2018-11-25T09:56:26.023Z,21.6
2018-11-25T09:57:14.445Z,21.5
2018-11-25T09:58:05.090Z,21.4
2018-11-25T09:58:55.178Z,21.3
2018-11-25T10:00:35.297Z,21.1
2018-11-25T10:01:26.120Z,21
2018-11-25T10:02:14.858Z,20.9
2018-11-25T10:03:06.548Z,20.8
2018-11-25T10:03:56.300Z,20.8
2018-11-25T10:04:46.035Z,20.8
2018-11-25T10:05:34.790Z,21
2018-11-25T10:06:25.967Z,21.8
2018-11-25T10:07:16.840Z,22.5
2018-11-25T10:08:06.348Z,23
2018-11-25T10:08:55.550Z,23.3
2018-11-25T10:09:46.355Z,23.6
2018-11-25T10:10:36.770Z,23.9
2018-11-25T10:11:26.782Z,24.2
2018-11-25T10:12:16.977Z,24.4
2018-11-25T10:13:07.216Z,24.6
2018-11-25T10:13:55.866Z,24.8
2018-11-25T10:14:46.504Z,24.9
2018-11-25T10:15:36.612Z,25.1
2018-11-25T10:16:25.787Z,25.3
2018-11-25T10:17:17.211Z,25.3
2018-11-25T10:18:07.527Z,24.9
2018-11-25T10:18:56.219Z,24.2
2018-11-25T10:19:47.096Z,23.7
2018-11-25T10:20:36.509Z,23.3
2018-11-25T10:21:26.951Z,22.9
2018-11-25T10:22:17.596Z,22.7
2018-11-25T10:23:06.624Z,22.5
2018-11-25T10:23:57.417Z,22.3
2018-11-25T10:24:47.444Z,22.2
2018-11-25T10:25:37.349Z,22.1
2018-11-25T10:26:28.146Z,21.9
2018-11-25T10:27:16.804Z,21.8
2018-11-25T10:28:06.956Z,21.7
2018-11-25T10:28:56.963Z,21.6
2018-11-25T10:29:47.858Z,21.4
2018-11-25T10:30:38.471Z,21.3
2018-11-25T10:31:27.443Z,21.2
2018-11-25T10:33:07.913Z,21
2018-11-25T10:33:58.438Z,20.9
2018-11-25T10:34:47.600Z,20.8
2018-11-25T10:35:37.658Z,20.8
2018-11-25T10:36:28.285Z,20.8
2018-11-25T10:37:17.789Z,21.2
2018-11-25T10:38:07.898Z,21.9
2018-11-25T10:38:58.196Z,22.6
2018-11-25T10:39:48.811Z,23.1
2018-11-25T10:40:38.313Z,23.4
2018-11-25T10:41:28.358Z,23.8
2018-11-25T10:42:18.222Z,24.1
2018-11-25T10:43:08.210Z,24.3
2018-11-25T10:43:58.800Z,24.5
2018-11-25T10:44:48.030Z,24.7
2018-11-25T10:45:37.807Z,24.9
2018-11-25T10:46:28.152Z,25
2018-11-25T10:47:19.059Z,25.1
2018-11-25T10:48:08.572Z,25.3
2018-11-25T10:48:59.198Z,25.4
2018-11-25T10:49:48.929Z,24.8
2018-11-25T10:50:39.295Z,24.1
2018-11-25T10:51:28.795Z,23.6
2018-11-25T10:52:19.093Z,23.2
2018-11-25T10:53:08.892Z,22.9
2018-11-25T10:54:00.048Z,22.6
2018-11-25T10:54:48.734Z,22.4
2018-11-25T10:55:38.849Z,22.3
2018-11-25T10:56:30.389Z,22.1
2018-11-25T10:57:19.859Z,22
2018-11-25T10:58:09.039Z,21.9
2018-11-25T10:58:59.369Z,21.8
2018-11-25T10:59:49.450Z,21.6
2018-11-25T11:00:40.672Z,21.5
2018-11-25T11:01:29.474Z,21.4
2018-11-25T11:02:19.571Z,21.3
2018-11-25T11:03:09.617Z,21.3
2018-11-25T11:04:50.256Z,21
2018-11-25T11:05:40.623Z,20.9
2018-11-25T11:06:30.336Z,20.9
2018-11-25T11:07:19.324Z,20.8
2018-11-25T11:08:09.986Z,20.7
2018-11-25T11:09:00.015Z,20.8
2018-11-25T11:09:51.223Z,21.6
2018-11-25T11:10:41.303Z,22.3
2018-11-25T11:11:30.761Z,22.9
2018-11-25T11:12:21.106Z,23.2
2018-11-25T11:13:10.079Z,23.6
2018-11-25T11:14:00.110Z,23.8
2018-11-25T11:14:50.406Z,24.1
2018-11-25T11:15:41.029Z,24.3
2018-11-25T11:16:30.548Z,24.5
2018-11-25T11:17:21.180Z,24.7
2018-11-25T11:18:12.443Z,24.9
2018-11-25T11:19:01.624Z,25
2018-11-25T11:19:51.038Z,25.1
2018-11-25T11:20:41.347Z,25.3
2018-11-25T11:21:31.456Z,25.4
2018-11-25T11:22:21.485Z,25.4
2018-11-25T11:23:12.370Z,25.1
2018-11-25T11:24:01.052Z,24.4
2018-11-25T11:24:52.478Z,23.8
2018-11-25T11:25:41.454Z,23.4
2018-11-25T11:26:32.060Z,23
2018-11-25T11:27:21.655Z,22.8
2018-11-25T11:28:11.625Z,22.6
2018-11-25T11:29:02.232Z,22.4
2018-11-25T11:29:51.487Z,22.2
2018-11-25T11:30:41.520Z,22.1
2018-11-25T11:31:30.737Z,21.9
2018-11-25T11:32:22.142Z,21.8
2018-11-25T11:33:11.532Z,21.7
2018-11-25T11:34:03.102Z,21.6
2018-11-25T11:34:52.344Z,21.4
2018-11-25T11:35:42.454Z,21.4
2018-11-25T11:36:31.929Z,21.3
2018-11-25T11:37:22.535Z,21.2
2018-11-25T11:38:12.589Z,21.1
2018-11-25T11:39:02.749Z,21
2018-11-25T11:39:52.539Z,20.9
2018-11-25T11:40:43.633Z,20.8
2018-11-25T11:41:33.104Z,20.8
2018-11-25T11:42:31.156Z,20.7
2018-11-25T11:43:12.719Z,20.6
2018-11-25T11:44:02.424Z,20.8
2018-11-25T11:44:53.633Z,21.6
2018-11-25T11:45:43.226Z,22.4
2018-11-25T11:46:33.743Z,22.9
2018-11-25T11:47:23.221Z,23.3
2018-11-25T11:48:13.054Z,23.6
2018-11-25T11:49:03.949Z,23.9
2018-11-25T11:49:53.688Z,24.2
2018-11-25T11:50:44.531Z,24.4
2018-11-25T11:51:35.480Z,24.7
2018-11-25T11:52:23.571Z,24.9
2018-11-25T11:53:14.967Z,25.1
2018-11-25T11:54:04.309Z,25.2
2018-11-25T11:54:53.765Z,25.4
2018-11-25T11:55:44.898Z,25.4
2018-11-25T11:56:42.174Z,24.8
2018-11-25T11:57:24.473Z,24.1
2018-11-25T11:58:14.225Z,23.7
2018-11-25T11:59:04.151Z,23.3
2018-11-25T11:59:54.102Z,23
2018-11-25T12:00:44.453Z,22.8
2018-11-25T12:01:33.678Z,22.6
2018-11-25T12:02:23.510Z,22.4
2018-11-25T12:03:13.904Z,22.3
2018-11-25T12:04:04.200Z,22.1
2018-11-25T12:04:53.755Z,22
2018-11-25T12:05:45.295Z,21.9
2018-11-25T12:06:33.897Z,21.8
2018-11-25T12:07:24.705Z,21.6